createdAt,value
2019-05-23T00:02:29.642Z,20.30
2019-05-23T00:05:05.723Z,20.40
2019-05-23T00:07:35.970Z,20.30
2019-05-23T00:10:07.773Z,20.30
2019-05-23T00:12:43.571Z,20.20
2019-05-23T00:15:25.662Z,20.10
2019-05-23T00:17:55.574Z,20.10
2019-05-23T00:20:25.272Z,20.10
2019-05-23T00:22:54.014Z,20.10
2019-05-23T00:25:23.654Z,20.00
2019-05-23T00:27:53.802Z,20.00
2019-05-23T00:30:24.013Z,19.90
2019-05-23T00:32:54.143Z,20.00
2019-05-23T00:35:24.353Z,20.00
2019-05-23T00:37:53.248Z,19.90
2019-05-23T00:40:23.346Z,19.90
2019-05-23T00:42:51.856Z,19.90
2019-05-23T00:45:21.994Z,19.90
2019-05-23T00:47:51.990Z,19.90
2019-05-23T00:50:21.310Z,19.90
2019-05-23T00:52:52.080Z,19.90
2019-05-23T00:55:20.613Z,19.90
2019-05-23T00:57:49.192Z,19.80
2019-05-23T01:00:19.719Z,19.90
2019-05-23T01:02:49.322Z,19.90
2019-05-23T01:05:18.923Z,19.90
2019-05-23T01:07:48.544Z,19.90
2019-05-23T01:10:18.352Z,19.80
2019-05-23T01:12:48.844Z,19.80
2019-05-23T01:15:18.816Z,19.70
2019-05-23T01:17:48.131Z,19.70
2019-05-23T01:20:21.176Z,19.70
2019-05-23T01:22:50.429Z,19.60
2019-05-23T01:25:19.405Z,19.60
2019-05-23T01:27:47.859Z,19.50
2019-05-23T01:30:24.032Z,19.60
2019-05-23T01:32:59.767Z,19.60
2019-05-23T01:35:28.254Z,19.60
2019-05-23T01:37:56.843Z,19.50
2019-05-23T01:40:25.377Z,19.50
2019-05-23T01:42:54.298Z,19.50
2019-05-23T01:45:22.905Z,19.50
2019-05-23T01:47:52.258Z,19.50
2019-05-23T01:50:23.565Z,19.50
2019-05-23T01:52:53.092Z,19.50
2019-05-23T01:55:21.892Z,19.50
2019-05-23T01:57:51.386Z,19.50
2019-05-23T02:00:21.342Z,19.40
2019-05-23T02:02:50.150Z,19.40
2019-05-23T02:05:19.282Z,19.30
2019-05-23T02:07:48.714Z,19.30
2019-05-23T02:10:17.198Z,19.30
2019-05-23T02:12:46.716Z,19.30
2019-05-23T02:15:16.942Z,19.20
2019-05-23T02:17:45.442Z,19.10
2019-05-23T02:20:14.297Z,19.20
2019-05-23T02:22:44.418Z,19.20
2019-05-23T02:25:17.744Z,19.10
2019-05-23T02:27:46.985Z,19.20
2019-05-23T02:30:33.297Z,19.20
2019-05-23T02:32:49.419Z,19.10
2019-05-23T02:35:18.529Z,19.10
2019-05-23T02:37:48.968Z,19.10
2019-05-23T02:40:19.171Z,19.10
2019-05-23T02:42:54.812Z,19.00
2019-05-23T02:45:34.119Z,19.00
2019-05-23T02:48:04.400Z,19.10
2019-05-23T02:50:44.424Z,19.00
2019-05-23T02:53:14.650Z,19.00
2019-05-23T02:55:43.962Z,19.00
2019-05-23T02:58:28.861Z,18.90
2019-05-23T03:01:18.068Z,18.90
2019-05-23T03:03:46.893Z,18.80
2019-05-23T03:06:17.052Z,18.80
2019-05-23T03:08:46.417Z,18.80
2019-05-23T03:11:20.045Z,18.80
2019-05-23T03:13:48.677Z,18.90
2019-05-23T03:16:19.230Z,18.80
2019-05-23T03:18:51.321Z,18.80
2019-05-23T03:21:19.805Z,18.80
2019-05-23T03:23:49.578Z,18.80
2019-05-23T03:26:33.506Z,18.80
2019-05-23T03:29:03.922Z,18.80
2019-05-23T03:31:36.963Z,18.70
2019-05-23T03:34:05.648Z,18.70
2019-05-23T03:36:34.381Z,18.80
2019-05-23T03:39:04.179Z,18.80
2019-05-23T03:41:32.919Z,18.80
2019-05-23T03:44:03.296Z,18.80
2019-05-23T03:46:32.545Z,18.80
2019-05-23T03:49:02.264Z,18.70
2019-05-23T03:51:31.022Z,18.80
2019-05-23T03:54:01.344Z,18.80
2019-05-23T03:56:31.345Z,18.70
2019-05-23T03:59:00.644Z,18.70
2019-05-23T04:01:46.204Z,18.70
2019-05-23T04:04:02.478Z,18.80
2019-05-23T04:06:31.721Z,18.70
2019-05-23T04:09:00.820Z,18.70
2019-05-23T04:11:29.278Z,18.80
2019-05-23T04:13:58.100Z,18.70
2019-05-23T04:16:30.479Z,18.70
2019-05-23T04:18:56.941Z,18.70
2019-05-23T04:21:26.383Z,18.70
2019-05-23T04:23:54.847Z,18.60
2019-05-23T04:26:23.891Z,18.60
2019-05-23T04:28:52.741Z,18.60
2019-05-23T04:31:21.976Z,18.60
2019-05-23T04:33:50.665Z,18.60
2019-05-23T04:36:19.848Z,18.60
2019-05-23T04:38:48.905Z,18.60
2019-05-23T04:41:17.830Z,18.50
2019-05-23T04:43:46.284Z,18.60
2019-05-23T04:46:17.738Z,18.50
2019-05-23T04:48:46.434Z,18.60
2019-05-23T04:51:15.152Z,18.70
2019-05-23T04:53:43.700Z,18.70
2019-05-23T04:56:12.712Z,18.70
2019-05-23T04:58:41.192Z,18.80
2019-05-23T05:01:10.172Z,18.90
2019-05-23T05:03:38.645Z,18.90
2019-05-23T05:06:07.769Z,19.10
2019-05-23T05:08:36.260Z,19.10
2019-05-23T05:11:05.815Z,19.20
2019-05-23T05:13:34.650Z,19.30
2019-05-23T05:16:03.110Z,19.40
2019-05-23T05:18:31.795Z,19.40
2019-05-23T05:21:00.249Z,19.50
2019-05-23T05:23:28.755Z,19.40
2019-05-23T05:25:57.358Z,19.30
2019-05-23T05:28:25.995Z,19.20
2019-05-23T05:30:54.712Z,19.10
2019-05-23T05:33:23.182Z,19.10
2019-05-23T05:35:51.774Z,19.10
2019-05-23T05:38:20.560Z,19.00
2019-05-23T05:40:49.889Z,18.90
2019-05-23T05:43:19.056Z,18.90
2019-05-23T05:45:47.659Z,18.90
2019-05-23T05:48:16.490Z,19.00
2019-05-23T05:50:45.033Z,19.20
2019-05-23T05:53:13.930Z,19.20
2019-05-23T05:55:42.615Z,19.20
2019-05-23T05:58:11.109Z,19.30
2019-05-23T06:00:49.990Z,19.40
2019-05-23T06:03:18.863Z,19.40
2019-05-23T06:05:58.102Z,19.30
2019-05-23T06:08:28.268Z,19.30
2019-05-23T06:10:56.740Z,19.20
2019-05-23T06:13:25.285Z,19.30
2019-05-23T06:15:54.141Z,19.40
2019-05-23T06:18:22.656Z,19.50
2019-05-23T06:20:51.486Z,19.60
2019-05-23T06:23:20.174Z,19.60
2019-05-23T06:25:48.759Z,19.60
2019-05-23T06:28:19.119Z,19.70
2019-05-23T06:30:47.897Z,19.70
2019-05-23T06:33:23.073Z,19.70
2019-05-23T06:35:47.319Z,19.60
2019-05-23T06:38:16.202Z,19.50
2019-05-23T06:40:45.764Z,19.40
2019-05-23T06:43:14.455Z,19.50
2019-05-23T06:45:43.612Z,19.60
2019-05-23T06:48:13.812Z,19.70
2019-05-23T06:50:42.312Z,19.70
2019-05-23T06:53:10.889Z,19.80
2019-05-23T06:55:39.526Z,19.90
2019-05-23T06:58:08.048Z,20.10
2019-05-23T07:00:36.526Z,20.20
2019-05-23T07:03:05.568Z,20.30
2019-05-23T07:05:37.129Z,20.50
2019-05-23T07:08:06.236Z,20.80
2019-05-23T07:10:34.715Z,20.90
2019-05-23T07:13:03.642Z,21.00
2019-05-23T07:15:32.987Z,21.00
2019-05-23T07:18:01.813Z,20.90
2019-05-23T07:20:30.768Z,20.80
2019-05-23T07:22:59.503Z,20.70
2019-05-23T07:25:28.692Z,20.70
2019-05-23T07:27:57.271Z,20.70
2019-05-23T07:30:26.274Z,20.60
2019-05-23T07:32:54.795Z,20.80
2019-05-23T07:35:24.014Z,20.70
2019-05-23T07:37:52.572Z,20.70
2019-05-23T07:40:21.757Z,20.70
2019-05-23T07:42:50.335Z,20.80
2019-05-23T07:45:26.500Z,20.70
2019-05-23T07:47:55.270Z,20.70
2019-05-23T07:50:23.870Z,20.70
2019-05-23T07:52:53.447Z,20.90
2019-05-23T07:55:39.847Z,21.20
2019-05-23T07:58:13.199Z,21.50
2019-05-23T08:00:41.284Z,21.60
2019-05-23T08:03:10.172Z,21.60
2019-05-23T08:05:38.996Z,21.60
2019-05-23T08:08:08.031Z,21.50
2019-05-23T08:10:37.054Z,21.50
2019-05-23T08:13:07.293Z,21.60
2019-05-23T08:15:35.991Z,21.50
2019-05-23T08:18:04.863Z,21.60
2019-05-23T08:20:33.842Z,21.70
2019-05-23T08:23:02.265Z,21.70
2019-05-23T08:25:30.868Z,21.80
2019-05-23T08:27:59.529Z,21.70
2019-05-23T08:30:28.030Z,21.80
2019-05-23T08:32:56.564Z,21.90
2019-05-23T08:35:25.041Z,21.90
2019-05-23T08:37:53.552Z,22.00
2019-05-23T08:40:23.662Z,22.10
2019-05-23T08:42:52.329Z,22.10
2019-05-23T08:45:21.338Z,22.10
2019-05-23T08:47:49.801Z,21.90
2019-05-23T08:50:18.999Z,22.20
2019-05-23T08:52:47.498Z,22.20
2019-05-23T08:55:24.150Z,22.20
2019-05-23T08:57:54.554Z,22.10
2019-05-23T09:00:26.270Z,22.10
2019-05-23T09:02:58.492Z,22.20
2019-05-23T09:05:26.388Z,22.50
2019-05-23T09:07:55.308Z,22.50
2019-05-23T09:10:24.670Z,22.40
2019-05-23T09:12:54.121Z,22.60
2019-05-23T09:15:22.674Z,22.60
2019-05-23T09:17:53.854Z,22.70
2019-05-23T09:20:21.950Z,22.60
2019-05-23T09:22:50.391Z,22.70
2019-05-23T09:25:19.177Z,22.70
2019-05-23T09:27:49.563Z,22.70
2019-05-23T09:30:17.986Z,22.70
2019-05-23T09:32:46.484Z,22.80
2019-05-23T09:35:20.865Z,23.00
2019-05-23T09:37:46.516Z,23.10
2019-05-23T09:40:15.815Z,23.00
2019-05-23T09:42:44.663Z,22.90
2019-05-23T09:45:14.793Z,23.00
2019-05-23T09:47:43.529Z,23.00
2019-05-23T09:50:13.855Z,22.90
2019-05-23T09:52:42.441Z,22.90
2019-05-23T09:55:11.043Z,22.90
2019-05-23T09:57:39.465Z,23.10
2019-05-23T10:00:09.411Z,23.10
2019-05-23T10:02:38.006Z,23.20
2019-05-23T10:05:08.200Z,23.40
2019-05-23T10:07:36.762Z,23.40
2019-05-23T10:10:06.166Z,23.40
2019-05-23T10:12:34.750Z,23.40
2019-05-23T10:15:04.742Z,23.50
2019-05-23T10:17:33.690Z,23.40
2019-05-23T10:20:02.308Z,23.40
2019-05-23T10:22:30.787Z,23.40
2019-05-23T10:24:59.475Z,23.40
2019-05-23T10:27:28.076Z,23.40
2019-05-23T10:29:56.595Z,23.60
2019-05-23T10:32:25.599Z,24.00
2019-05-23T10:34:54.213Z,24.20
2019-05-23T10:37:24.434Z,24.50
2019-05-23T10:39:55.764Z,24.60
2019-05-23T10:42:25.506Z,24.80
2019-05-23T10:44:54.355Z,25.20
2019-05-23T10:47:22.887Z,25.50
2019-05-23T10:49:52.199Z,25.80
2019-05-23T10:52:20.832Z,25.90
2019-05-23T10:54:49.392Z,26.10
2019-05-23T10:57:18.038Z,26.60
2019-05-23T10:59:46.714Z,27.00
2019-05-23T11:02:15.705Z,26.90
2019-05-23T11:04:44.339Z,26.90
2019-05-23T11:07:14.529Z,26.90
2019-05-23T11:09:43.120Z,27.20
2019-05-23T11:12:12.368Z,27.10
2019-05-23T11:14:40.879Z,27.20
2019-05-23T11:17:09.999Z,27.40
2019-05-23T11:19:38.622Z,27.70
2019-05-23T11:22:08.191Z,28.10
2019-05-23T11:24:36.777Z,28.00
2019-05-23T11:27:05.433Z,27.70
2019-05-23T11:29:33.844Z,27.40
2019-05-23T11:32:02.485Z,27.20
2019-05-23T11:34:32.338Z,27.20
2019-05-23T11:37:01.072Z,27.30
2019-05-23T11:39:29.741Z,27.70
2019-05-23T11:41:58.224Z,27.80
2019-05-23T11:44:26.791Z,27.80
2019-05-23T11:46:56.360Z,27.70
2019-05-23T11:49:25.031Z,27.70
2019-05-23T11:51:53.571Z,27.60
2019-05-23T11:54:22.106Z,27.70
2019-05-23T11:56:51.022Z,27.80
2019-05-23T11:59:19.598Z,28.20
2019-05-23T12:01:49.772Z,28.50
2019-05-23T12:04:19.890Z,28.90
2019-05-23T12:06:58.994Z,28.80
2019-05-23T12:09:27.963Z,28.60
2019-05-23T12:11:56.550Z,28.80
2019-05-23T12:14:25.124Z,29.20
2019-05-23T12:16:53.789Z,29.60
2019-05-23T12:19:22.610Z,29.70
2019-05-23T12:21:51.109Z,29.70
2019-05-23T12:24:20.057Z,29.80
2019-05-23T12:26:48.580Z,30.20
2019-05-23T12:29:17.263Z,30.50
2019-05-23T12:31:49.169Z,30.50
2019-05-23T12:34:15.908Z,30.60
2019-05-23T12:36:44.502Z,30.70
2019-05-23T12:39:13.283Z,30.60
2019-05-23T12:41:42.286Z,30.30
2019-05-23T12:44:11.067Z,30.30
2019-05-23T12:46:39.557Z,30.20
2019-05-23T12:49:12.701Z,30.30
2019-05-23T12:51:43.036Z,30.20
2019-05-23T12:54:11.621Z,30.10
2019-05-23T12:56:40.706Z,30.10
2019-05-23T12:59:09.734Z,30.40
2019-05-23T13:01:39.904Z,30.90
2019-05-23T13:04:10.505Z,31.50
2019-05-23T13:06:39.015Z,31.80
2019-05-23T13:09:09.227Z,32.00
2019-05-23T13:11:38.504Z,31.70
2019-05-23T13:14:08.242Z,31.50
2019-05-23T13:16:37.191Z,31.40
2019-05-23T13:19:05.990Z,31.40
2019-05-23T13:21:34.537Z,31.50
2019-05-23T13:24:03.021Z,31.40
2019-05-23T13:26:31.900Z,31.20
2019-05-23T13:29:00.334Z,31.00
2019-05-23T13:31:28.906Z,30.90
2019-05-23T13:36:35.721Z,30.90
2019-05-23T13:39:08.325Z,31.90
2019-05-23T13:41:36.852Z,32.20
2019-05-23T13:44:05.497Z,32.50
2019-05-23T13:46:34.303Z,32.40
2019-05-23T13:49:03.005Z,32.40
2019-05-23T13:51:31.451Z,32.10
2019-05-23T13:53:59.944Z,32.00
2019-05-23T13:56:28.416Z,32.10
2019-05-23T13:58:56.871Z,31.90
2019-05-23T14:01:25.431Z,31.80
2019-05-23T14:03:54.365Z,31.50
2019-05-23T14:06:23.383Z,31.40
2019-05-23T14:08:52.009Z,31.50
2019-05-23T14:11:20.692Z,31.70
2019-05-23T14:13:59.123Z,31.80
2019-05-23T14:16:19.601Z,32.20
2019-05-23T14:18:48.055Z,32.60
2019-05-23T14:21:16.778Z,33.00
2019-05-23T14:23:45.379Z,33.60
2019-05-23T14:26:14.699Z,34.50
2019-05-23T14:28:43.257Z,35.00
2019-05-23T14:31:15.796Z,35.10
2019-05-23T14:33:52.147Z,34.70
2019-05-23T14:36:22.248Z,34.20
2019-05-23T14:38:52.191Z,33.80
2019-05-23T14:41:20.862Z,33.80
2019-05-23T14:43:51.107Z,34.00
2019-05-23T14:46:21.389Z,34.10
2019-05-23T14:49:07.624Z,34.10
2019-05-23T14:51:37.743Z,34.20
2019-05-23T14:54:10.727Z,34.40
2019-05-23T14:56:40.015Z,34.70
2019-05-23T14:59:08.600Z,34.50
2019-05-23T15:01:37.797Z,34.20
2019-05-23T15:04:06.934Z,34.00
2019-05-23T15:06:35.975Z,33.90
2019-05-23T15:09:07.858Z,33.60
2019-05-23T15:11:36.953Z,33.40
2019-05-23T15:14:05.860Z,33.80
2019-05-23T15:16:34.944Z,34.30
2019-05-23T15:19:04.023Z,34.70
2019-05-23T15:21:32.619Z,34.70
2019-05-23T15:24:01.060Z,34.70
2019-05-23T15:26:29.580Z,34.80
2019-05-23T15:28:58.249Z,34.90
2019-05-23T15:31:26.898Z,34.80
2019-05-23T15:33:55.354Z,34.40
2019-05-23T15:36:23.955Z,33.90
2019-05-23T15:39:08.133Z,33.50
2019-05-23T15:41:23.100Z,33.10
2019-05-23T15:43:51.671Z,33.00
2019-05-23T15:46:20.486Z,33.00
2019-05-23T15:48:48.997Z,32.90
2019-05-23T15:51:19.081Z,32.50
2019-05-23T15:54:06.365Z,32.20
2019-05-23T15:56:42.308Z,31.70
2019-05-23T15:59:29.037Z,31.40
2019-05-23T16:02:01.861Z,31.50
2019-05-23T16:04:39.776Z,32.10
2019-05-23T16:07:09.811Z,32.70
2019-05-23T16:09:38.419Z,33.50
2019-05-23T16:12:10.097Z,33.90
2019-05-23T16:14:38.618Z,34.20
2019-05-23T16:17:17.566Z,33.80
2019-05-23T16:19:55.758Z,33.60
2019-05-23T16:22:34.169Z,33.60
2019-05-23T16:25:02.738Z,33.50
2019-05-23T16:27:31.457Z,33.30
2019-05-23T16:29:59.982Z,33.10
2019-05-23T16:32:29.001Z,33.00
2019-05-23T16:37:50.273Z,32.40
2019-05-23T16:40:18.887Z,31.70
2019-05-23T16:42:47.568Z,31.00
2019-05-23T16:45:16.135Z,30.30
2019-05-23T16:47:44.785Z,29.60
2019-05-23T16:50:13.351Z,29.00
2019-05-23T16:52:41.802Z,28.60
2019-05-23T16:55:11.980Z,28.20
2019-05-23T16:57:44.815Z,27.90
2019-05-23T17:00:31.357Z,27.40
2019-05-23T17:03:16.853Z,27.20
2019-05-23T17:05:55.775Z,26.90
2019-05-23T17:08:41.051Z,26.70
2019-05-23T17:11:11.176Z,26.50
2019-05-23T17:13:47.236Z,26.40
2019-05-23T17:16:17.358Z,26.30
2019-05-23T17:18:50.438Z,26.10
2019-05-23T17:21:38.966Z,26.00
2019-05-23T17:24:11.981Z,26.00
2019-05-23T17:26:58.347Z,25.90
2019-05-23T17:29:40.494Z,25.90
2019-05-23T17:32:10.770Z,25.80
2019-05-23T17:34:39.364Z,25.80
2019-05-23T17:37:08.991Z,25.80
2019-05-23T17:40:24.710Z,25.80
2019-05-23T17:42:49.539Z,25.70
2019-05-23T17:45:18.367Z,25.70
2019-05-23T17:47:47.012Z,25.80
2019-05-23T17:50:15.494Z,25.80
2019-05-23T17:52:44.399Z,25.70
2019-05-23T17:55:12.863Z,25.70
2019-05-23T17:57:41.445Z,25.70
2019-05-23T18:00:10.134Z,25.70
2019-05-23T18:02:38.604Z,25.70
2019-05-23T18:05:08.375Z,25.70
2019-05-23T18:07:38.400Z,25.70
2019-05-23T18:10:11.446Z,25.70
2019-05-23T18:12:39.962Z,25.70
2019-05-23T18:15:10.478Z,25.60
2019-05-23T18:17:39.311Z,25.60
2019-05-23T18:20:09.651Z,25.60
2019-05-23T18:22:38.742Z,25.60
2019-05-23T18:25:09.227Z,25.60
2019-05-23T18:27:37.738Z,25.50
2019-05-23T18:30:08.368Z,25.60
2019-05-23T18:32:36.791Z,25.60
2019-05-23T18:35:07.903Z,25.60
2019-05-23T18:37:36.531Z,25.50
2019-05-23T18:40:07.338Z,25.50
2019-05-23T18:42:36.143Z,25.50
2019-05-23T18:45:06.963Z,25.50
2019-05-23T18:47:37.400Z,25.50
2019-05-23T18:50:07.408Z,25.40
2019-05-23T18:52:36.067Z,25.40
2019-05-23T18:55:05.911Z,25.40
2019-05-23T18:57:34.499Z,25.40
2019-05-23T19:00:03.064Z,25.40
2019-05-23T19:02:32.281Z,25.30
2019-05-23T19:05:00.782Z,25.20
2019-05-23T19:07:29.302Z,25.30
2019-05-23T19:09:57.758Z,25.20
2019-05-23T19:12:26.656Z,25.20
2019-05-23T19:14:55.136Z,25.20
2019-05-23T19:17:24.131Z,25.20
2019-05-23T19:19:53.121Z,25.20
2019-05-23T19:22:21.792Z,25.10
2019-05-23T19:24:50.274Z,25.10
2019-05-23T19:27:18.807Z,25.10
2019-05-23T19:29:48.030Z,25.00
2019-05-23T19:32:16.574Z,25.00
2019-05-23T19:34:45.158Z,25.00
2019-05-23T19:37:13.923Z,24.90
2019-05-23T19:39:43.639Z,24.90
2019-05-23T19:42:13.181Z,24.90
2019-05-23T19:44:41.671Z,24.90
2019-05-23T19:47:10.126Z,24.90
2019-05-23T19:49:38.944Z,24.90
2019-05-23T19:52:07.802Z,24.80
2019-05-23T19:54:36.473Z,24.80
2019-05-23T19:57:05.079Z,24.80
2019-05-23T19:59:33.521Z,24.80
2019-05-23T20:02:06.456Z,24.80
2019-05-23T20:04:36.515Z,24.70
2019-05-23T20:07:05.753Z,24.80
2019-05-23T20:09:34.379Z,24.70
2019-05-23T20:12:04.654Z,24.70
2019-05-23T20:14:33.107Z,24.70
2019-05-23T20:17:01.587Z,24.70
2019-05-23T20:19:30.104Z,24.70
2019-05-23T20:21:58.570Z,24.70
2019-05-23T20:24:27.043Z,24.60
2019-05-23T20:26:55.532Z,24.60
2019-05-23T20:29:23.994Z,24.60
2019-05-23T20:31:52.537Z,24.60
2019-05-23T20:34:21.555Z,24.60
2019-05-23T20:36:50.089Z,24.60
2019-05-23T20:39:18.610Z,24.60
2019-05-23T20:41:47.139Z,24.60
2019-05-23T20:44:15.579Z,24.60
2019-05-23T20:46:44.031Z,24.60
2019-05-23T20:49:12.530Z,24.50
2019-05-23T20:51:41.228Z,24.60
2019-05-23T20:54:09.667Z,24.50
2019-05-23T20:56:38.235Z,24.50
2019-05-23T20:59:07.122Z,24.50
2019-05-23T21:01:37.244Z,24.50
2019-05-23T21:04:05.766Z,24.60
2019-05-23T21:06:34.324Z,24.50
2019-05-23T21:09:04.396Z,24.50
2019-05-23T21:11:32.990Z,24.50
2019-05-23T21:14:01.434Z,24.50
2019-05-23T21:16:29.888Z,24.50
2019-05-23T21:18:58.376Z,24.50
2019-05-23T21:21:26.826Z,24.40
2019-05-23T21:23:57.039Z,24.50
2019-05-23T21:26:25.615Z,24.50
2019-05-23T21:28:54.059Z,24.50
2019-05-23T21:31:23.341Z,24.40
2019-05-23T21:33:51.924Z,24.40
2019-05-23T21:36:20.367Z,24.50
2019-05-23T21:38:48.822Z,24.40
2019-05-23T21:41:17.444Z,24.40
2019-05-23T21:43:47.570Z,24.30
2019-05-23T21:46:16.145Z,24.30
2019-05-23T21:48:44.595Z,24.40
2019-05-23T21:51:15.778Z,24.30
2019-05-23T21:53:44.282Z,24.30
2019-05-23T21:56:12.882Z,24.40
2019-05-23T21:58:41.318Z,24.40
2019-05-23T22:01:18.821Z,24.30
2019-05-23T22:03:55.004Z,24.30
2019-05-23T22:06:31.347Z,24.30
2019-05-23T22:09:01.640Z,24.30
2019-05-23T22:11:30.091Z,24.30
2019-05-23T22:13:59.043Z,24.20
2019-05-23T22:16:27.566Z,24.20
2019-05-23T22:18:56.039Z,24.10
2019-05-23T22:21:24.783Z,24.20
2019-05-23T22:23:53.520Z,24.10
2019-05-23T22:26:22.025Z,24.10
2019-05-23T22:28:50.438Z,24.10
2019-05-23T22:31:20.417Z,24.10
2019-05-23T22:33:56.502Z,24.00
2019-05-23T22:36:24.961Z,24.10
2019-05-23T22:38:53.539Z,24.00
2019-05-23T22:41:22.266Z,23.90
2019-05-23T22:43:50.746Z,24.00
2019-05-23T22:46:20.866Z,23.90
2019-05-23T22:48:49.424Z,23.90
2019-05-23T22:51:17.915Z,23.90
2019-05-23T22:53:46.440Z,23.90
2019-05-23T22:56:14.903Z,23.90
2019-05-23T22:58:44.027Z,23.90
2019-05-23T23:01:12.579Z,23.90
2019-05-23T23:03:41.022Z,23.90
2019-05-23T23:06:09.943Z,23.80
2019-05-23T23:08:38.559Z,23.80
2019-05-23T23:11:09.639Z,23.80
2019-05-23T23:13:39.300Z,23.70
2019-05-23T23:16:08.070Z,23.70
2019-05-23T23:18:36.612Z,23.70
2019-05-23T23:21:05.049Z,23.50
2019-05-23T23:23:33.499Z,23.70
2019-05-23T23:26:02.074Z,23.60
2019-05-23T23:28:30.506Z,23.60
2019-05-23T23:30:59.136Z,23.50
2019-05-23T23:33:27.694Z,23.60
2019-05-23T23:35:56.378Z,23.50
2019-05-23T23:38:26.275Z,23.50
2019-05-23T23:40:54.715Z,23.50
2019-05-23T23:43:23.198Z,23.50
2019-05-23T23:46:10.040Z,23.50
2019-05-23T23:48:56.328Z,23.40
2019-05-23T23:51:42.507Z,23.40
2019-05-23T23:54:28.579Z,23.40
2019-05-23T23:57:14.833Z,23.30
2019-05-23T23:59:42.624Z,23.20
